createdAt,value
2017-01-14T00:00:50.914Z,0
2017-01-14T00:01:50.886Z,0
2017-01-14T00:02:50.865Z,0
2017-01-14T00:03:50.852Z,0
2017-01-14T00:04:50.831Z,0
2017-01-14T00:05:50.812Z,0
2017-01-14T00:06:50.791Z,0
2017-01-14T00:07:50.768Z,0
2017-01-14T00:08:50.752Z,0
2017-01-14T00:09:50.742Z,0
2017-01-14T00:10:50.711Z,0
2017-01-14T00:11:50.700Z,0
2017-01-14T00:12:50.676Z,0
2017-01-14T00:13:50.656Z,0
2017-01-14T00:14:50.632Z,0
2017-01-14T00:15:50.617Z,0
2017-01-14T00:16:50.599Z,0
2017-01-14T00:17:50.582Z,0
2017-01-14T00:18:50.559Z,0
2017-01-14T00:19:50.548Z,0
2017-01-14T00:20:50.524Z,0
2017-01-14T00:21:50.502Z,0
2017-01-14T00:22:50.485Z,0
2017-01-14T00:23:50.487Z,0
2017-01-14T00:24:50.441Z,0
2017-01-14T00:25:50.428Z,0
2017-01-14T00:26:50.404Z,0
2017-01-14T00:27:50.390Z,0
2017-01-14T00:28:50.373Z,0
2017-01-14T00:29:50.348Z,0
2017-01-14T00:30:50.329Z,0
2017-01-14T00:31:50.312Z,0
2017-01-14T00:32:50.290Z,0
2017-01-14T00:33:50.298Z,0
2017-01-14T00:34:50.249Z,0
2017-01-14T00:35:50.230Z,0
2017-01-14T00:36:50.212Z,0
2017-01-14T00:37:50.201Z,0
2017-01-14T00:38:50.177Z,0
2017-01-14T00:39:50.157Z,0
2017-01-14T00:40:50.142Z,0
2017-01-14T00:41:50.121Z,0
2017-01-14T00:42:50.103Z,0
2017-01-14T00:43:50.075Z,0
2017-01-14T00:44:50.055Z,0
2017-01-14T00:45:50.039Z,0
2017-01-14T00:46:50.018Z,0
2017-01-14T00:47:50.011Z,0
2017-01-14T00:48:49.987Z,0
2017-01-14T00:49:49.964Z,0
2017-01-14T00:50:49.947Z,0
2017-01-14T00:51:49.930Z,0
2017-01-14T00:52:49.913Z,0
2017-01-14T00:53:49.887Z,0
2017-01-14T00:54:49.868Z,0
2017-01-14T00:55:49.853Z,0
2017-01-14T00:56:49.828Z,0
2017-01-14T00:57:49.814Z,0
2017-01-14T00:58:49.792Z,0
2017-01-14T00:59:49.770Z,0
2017-01-14T01:00:49.753Z,0
2017-01-14T01:01:49.734Z,0
2017-01-14T01:02:49.720Z,0
2017-01-14T01:03:49.696Z,0
2017-01-14T01:04:50.082Z,0
2017-01-14T01:05:49.667Z,0
2017-01-14T01:06:49.636Z,0
2017-01-14T01:07:49.619Z,0
2017-01-14T01:08:49.602Z,0
2017-01-14T01:09:49.577Z,0
2017-01-14T01:10:49.561Z,0
2017-01-14T01:11:49.543Z,0
2017-01-14T01:12:49.523Z,0
2017-01-14T01:13:49.512Z,0
2017-01-14T01:14:49.481Z,0
2017-01-14T01:15:49.478Z,0
2017-01-14T01:16:49.446Z,0
2017-01-14T01:17:49.436Z,0
2017-01-14T01:18:49.406Z,0
2017-01-14T01:19:49.393Z,0
2017-01-14T01:20:49.369Z,0
2017-01-14T01:21:49.348Z,0
2017-01-14T01:22:49.335Z,0
2017-01-14T01:23:49.315Z,0
2017-01-14T01:24:49.292Z,0
2017-01-14T01:25:49.279Z,0
2017-01-14T01:26:49.259Z,0
2017-01-14T01:27:49.264Z,0
2017-01-14T01:28:49.218Z,0
2017-01-14T01:29:49.601Z,0
2017-01-14T01:30:49.183Z,0
2017-01-14T01:31:49.160Z,0
2017-01-14T01:32:49.140Z,0
2017-01-14T01:33:49.126Z,0
2017-01-14T01:34:49.104Z,0
2017-01-14T01:35:49.085Z,0
2017-01-14T01:36:49.093Z,0
2017-01-14T01:37:49.074Z,0
2017-01-14T01:38:49.030Z,0
2017-01-14T01:39:49.010Z,0
2017-01-14T01:40:48.991Z,0
2017-01-14T01:41:48.976Z,0
2017-01-14T01:42:48.954Z,0
2017-01-14T01:43:48.935Z,0
2017-01-14T01:44:48.923Z,0
2017-01-14T01:45:48.897Z,0
2017-01-14T01:46:48.876Z,0
2017-01-14T01:47:48.860Z,0
2017-01-14T01:48:48.844Z,0
2017-01-14T01:49:48.823Z,0
2017-01-14T01:50:48.800Z,0
2017-01-14T01:51:48.783Z,0
2017-01-14T01:52:48.760Z,0
2017-01-14T01:53:48.748Z,0
2017-01-14T01:54:48.730Z,0
2017-01-14T01:55:48.714Z,0
2017-01-14T01:56:49.083Z,0
2017-01-14T01:57:48.669Z,0
2017-01-14T01:58:48.650Z,0
2017-01-14T01:59:48.628Z,0
2017-01-14T02:00:48.615Z,0
2017-01-14T02:01:48.593Z,0
2017-01-14T02:02:48.587Z,0
2017-01-14T02:03:48.557Z,0
2017-01-14T02:04:48.538Z,0
2017-01-14T02:05:48.515Z,0
2017-01-14T02:06:49.359Z,0
2017-01-14T02:07:48.484Z,0
2017-01-14T02:08:48.465Z,0
2017-01-14T02:09:48.440Z,0
2017-01-14T02:10:48.428Z,0
2017-01-14T02:11:48.398Z,0
2017-01-14T02:12:48.381Z,0
2017-01-14T02:13:48.394Z,0
2017-01-14T02:14:48.344Z,0
2017-01-14T02:15:48.330Z,0
2017-01-14T02:16:48.309Z,0
2017-01-14T02:17:48.286Z,0
2017-01-14T02:18:48.269Z,0
2017-01-14T02:19:48.249Z,0
2017-01-14T02:20:48.232Z,0
2017-01-14T02:21:48.211Z,0
2017-01-14T02:22:48.199Z,0
2017-01-14T02:23:48.177Z,0
2017-01-14T02:24:48.154Z,0
2017-01-14T02:25:48.169Z,0
2017-01-14T02:26:48.118Z,0
2017-01-14T02:27:48.100Z,0
2017-01-14T02:28:48.080Z,0
2017-01-14T02:29:48.065Z,0
2017-01-14T02:30:48.043Z,0
2017-01-14T02:31:48.028Z,0
2017-01-14T02:32:48.004Z,0
2017-01-14T02:33:47.989Z,0
2017-01-14T02:34:47.969Z,0
2017-01-14T02:35:47.952Z,0
2017-01-14T02:36:47.932Z,0
2017-01-14T02:37:47.912Z,0
2017-01-14T02:38:47.896Z,0
2017-01-14T02:39:47.874Z,0
2017-01-14T02:40:47.858Z,0
2017-01-14T02:41:47.835Z,0
2017-01-14T02:42:47.817Z,0
2017-01-14T02:43:47.799Z,0
2017-01-14T02:44:47.778Z,0
2017-01-14T02:45:47.763Z,0
2017-01-14T02:46:47.744Z,0
2017-01-14T02:47:47.726Z,0
2017-01-14T02:48:47.711Z,0
2017-01-14T02:49:47.688Z,0
2017-01-14T02:50:48.162Z,0
2017-01-14T02:51:47.649Z,0
2017-01-14T02:52:47.958Z,0
2017-01-14T02:53:47.614Z,0
2017-01-14T02:54:47.598Z,0
2017-01-14T02:55:47.974Z,0
2017-01-14T02:56:47.558Z,0
2017-01-14T02:57:47.542Z,0
2017-01-14T02:58:47.517Z,0
2017-01-14T02:59:47.501Z,0
2017-01-14T03:00:47.495Z,0
2017-01-14T03:01:47.465Z,0
2017-01-14T03:02:47.449Z,0
2017-01-14T03:03:47.423Z,0
2017-01-14T03:04:47.411Z,0
2017-01-14T03:05:47.386Z,0
2017-01-14T03:06:47.372Z,0
2017-01-14T03:07:47.347Z,0
2017-01-14T03:08:47.334Z,0
2017-01-14T03:09:47.316Z,0
2017-01-14T03:10:47.296Z,0
2017-01-14T03:11:47.286Z,0
2017-01-14T03:12:47.259Z,0
2017-01-14T03:13:47.241Z,0
2017-01-14T03:14:47.217Z,0
2017-01-14T03:15:47.201Z,0
2017-01-14T03:16:47.181Z,0
2017-01-14T03:17:47.173Z,0
2017-01-14T03:18:47.144Z,0
2017-01-14T03:19:47.127Z,0
2017-01-14T03:20:47.104Z,0
2017-01-14T03:21:47.088Z,0
2017-01-14T03:22:47.072Z,0
2017-01-14T03:23:47.053Z,0
2017-01-14T03:24:47.031Z,0
2017-01-14T03:25:47.013Z,0
2017-01-14T03:26:47.020Z,0
2017-01-14T03:27:46.978Z,0
2017-01-14T03:28:46.965Z,0
2017-01-14T03:29:46.940Z,0
2017-01-14T03:30:46.922Z,0
2017-01-14T03:31:46.902Z,0
2017-01-14T03:32:46.890Z,0
2017-01-14T03:33:46.866Z,0
2017-01-14T03:34:46.876Z,0
2017-01-14T03:35:47.226Z,0
2017-01-14T03:36:46.813Z,0
2017-01-14T03:37:46.791Z,0
2017-01-14T03:38:46.801Z,0
2017-01-14T03:39:46.758Z,0
2017-01-14T03:40:46.735Z,0
2017-01-14T03:41:46.712Z,0
2017-01-14T03:42:46.695Z,0
2017-01-14T03:43:46.678Z,0
2017-01-14T03:44:46.664Z,0
2017-01-14T03:45:46.675Z,0
2017-01-14T03:46:46.618Z,0
2017-01-14T03:47:46.604Z,0
2017-01-14T03:48:46.587Z,0
2017-01-14T03:49:46.963Z,0
2017-01-14T03:50:46.548Z,0
2017-01-14T03:51:46.530Z,0
2017-01-14T03:52:46.511Z,0
2017-01-14T03:53:46.496Z,0
2017-01-14T03:54:46.474Z,0
2017-01-14T03:55:46.452Z,0
2017-01-14T03:56:46.433Z,0
2017-01-14T03:57:46.418Z,0
2017-01-14T03:58:46.406Z,0
2017-01-14T03:59:46.383Z,0
2017-01-14T04:00:46.365Z,0
2017-01-14T04:01:46.343Z,0
2017-01-14T04:02:46.323Z,0
2017-01-14T04:03:46.307Z,0
2017-01-14T04:04:46.285Z,0
2017-01-14T04:05:46.299Z,0
2017-01-14T04:06:46.253Z,0
2017-01-14T04:07:46.235Z,0
2017-01-14T04:08:46.213Z,0
2017-01-14T04:09:46.199Z,0
2017-01-14T04:10:46.186Z,0
2017-01-14T04:11:46.157Z,0
2017-01-14T04:12:46.139Z,0
2017-01-14T04:13:46.124Z,0
2017-01-14T04:14:46.106Z,0
2017-01-14T04:15:46.087Z,0
2017-01-14T04:16:46.059Z,0
2017-01-14T04:17:46.048Z,0
2017-01-14T04:18:46.029Z,0
2017-01-14T04:19:46.012Z,0
2017-01-14T04:20:45.993Z,0
2017-01-14T04:21:45.975Z,0
2017-01-14T04:22:45.956Z,0
2017-01-14T04:23:45.934Z,0
2017-01-14T04:24:45.918Z,0
2017-01-14T04:25:45.898Z,0
2017-01-14T04:26:45.878Z,0
2017-01-14T04:27:45.860Z,0
2017-01-14T04:28:45.846Z,0
2017-01-14T04:29:45.838Z,0
2017-01-14T04:30:45.808Z,0
2017-01-14T04:31:45.790Z,0
2017-01-14T04:32:45.773Z,0
2017-01-14T04:33:45.754Z,0
2017-01-14T04:34:45.738Z,0
2017-01-14T04:35:45.715Z,0
2017-01-14T04:36:45.694Z,0
2017-01-14T04:37:45.681Z,0
2017-01-14T04:38:45.652Z,0
2017-01-14T04:39:45.641Z,0
2017-01-14T04:40:45.623Z,0
2017-01-14T04:41:45.608Z,0
2017-01-14T04:42:45.584Z,0
2017-01-14T04:43:45.568Z,0
2017-01-14T04:44:45.545Z,0
2017-01-14T04:45:45.528Z,0
2017-01-14T04:46:45.514Z,0
2017-01-14T04:47:45.491Z,0
2017-01-14T04:48:45.473Z,0
2017-01-14T04:49:45.456Z,0
2017-01-14T04:50:45.438Z,0
2017-01-14T04:51:45.419Z,0
2017-01-14T04:52:45.404Z,0
2017-01-14T04:53:45.382Z,0
2017-01-14T04:54:45.367Z,0
2017-01-14T04:55:45.350Z,0
2017-01-14T04:56:45.333Z,0
2017-01-14T04:57:45.313Z,0
2017-01-14T04:58:45.292Z,0
2017-01-14T04:59:45.273Z,0
2017-01-14T05:00:45.256Z,0
2017-01-14T05:01:45.661Z,0
2017-01-14T05:02:45.246Z,0
2017-01-14T05:03:45.199Z,0
2017-01-14T05:04:45.184Z,0
2017-01-14T05:05:45.166Z,0
2017-01-14T05:06:45.144Z,0
2017-01-14T05:07:45.126Z,0
2017-01-14T05:08:45.116Z,0
2017-01-14T05:09:45.087Z,0
2017-01-14T05:10:45.070Z,0
2017-01-14T05:11:45.055Z,0
2017-01-14T05:12:45.037Z,0
2017-01-14T05:13:45.433Z,0
2017-01-14T05:14:45.003Z,0
2017-01-14T05:15:44.987Z,0
2017-01-14T05:16:44.963Z,0
2017-01-14T05:17:44.954Z,0
2017-01-14T05:18:44.927Z,0
2017-01-14T05:19:44.907Z,0
2017-01-14T05:20:44.890Z,0
2017-01-14T05:21:44.875Z,0
2017-01-14T05:22:44.852Z,0
2017-01-14T05:23:44.845Z,0
2017-01-14T05:24:44.818Z,0
2017-01-14T05:25:44.799Z,0
2017-01-14T05:26:44.781Z,0
2017-01-14T05:27:44.767Z,0
2017-01-14T05:28:44.745Z,0
2017-01-14T05:29:44.732Z,0
2017-01-14T05:30:44.710Z,0
2017-01-14T05:31:44.692Z,0
2017-01-14T05:32:44.713Z,0
2017-01-14T05:33:44.658Z,0
2017-01-14T05:34:44.641Z,0
2017-01-14T05:35:44.619Z,0
2017-01-14T05:36:44.603Z,0
2017-01-14T05:37:44.586Z,0
2017-01-14T05:38:44.564Z,0
2017-01-14T05:39:44.549Z,0
2017-01-14T05:40:44.533Z,0
2017-01-14T05:41:44.549Z,0
2017-01-14T05:42:44.495Z,0
2017-01-14T05:43:44.479Z,0
2017-01-14T05:44:44.455Z,0
2017-01-14T05:45:44.443Z,0
2017-01-14T05:46:44.419Z,0
2017-01-14T05:47:44.406Z,0
2017-01-14T05:48:44.390Z,0
2017-01-14T05:49:44.366Z,0
2017-01-14T05:50:44.348Z,0
2017-01-14T05:51:44.337Z,0
2017-01-14T05:52:44.313Z,0
2017-01-14T05:53:44.299Z,0
2017-01-14T05:54:44.306Z,0
2017-01-14T05:55:44.260Z,0
2017-01-14T05:56:44.247Z,0
2017-01-14T05:57:44.260Z,0
2017-01-14T05:58:44.205Z,0
2017-01-14T05:59:44.189Z,0
2017-01-14T06:00:44.177Z,0
2017-01-14T06:01:44.153Z,0
2017-01-14T06:02:44.132Z,0
2017-01-14T06:03:44.118Z,0
2017-01-14T06:04:44.101Z,0
2017-01-14T06:05:44.080Z,0
2017-01-14T06:06:44.096Z,0
2017-01-14T06:07:44.047Z,0
2017-01-14T06:08:44.027Z,0
2017-01-14T06:09:44.013Z,0
2017-01-14T06:10:44.017Z,0
2017-01-14T06:11:43.979Z,0
2017-01-14T06:12:43.958Z,0
2017-01-14T06:13:43.935Z,0
2017-01-14T06:14:43.917Z,0
2017-01-14T06:15:43.904Z,0
2017-01-14T06:16:43.883Z,0
2017-01-14T06:17:43.867Z,0
2017-01-14T06:18:43.847Z,0
2017-01-14T06:19:43.830Z,0
2017-01-14T06:20:43.811Z,0
2017-01-14T06:21:43.796Z,0
2017-01-14T06:22:43.801Z,0
2017-01-14T06:23:43.757Z,0
2017-01-14T06:24:43.742Z,0
2017-01-14T06:25:43.727Z,0
2017-01-14T06:26:44.105Z,0
2017-01-14T06:27:43.685Z,0
2017-01-14T06:28:43.684Z,0
2017-01-14T06:29:43.654Z,0
2017-01-14T06:30:43.639Z,0
2017-01-14T06:31:43.648Z,0
2017-01-14T06:32:43.599Z,0
2017-01-14T06:33:43.580Z,0
2017-01-14T06:34:43.564Z,0
2017-01-14T06:35:43.542Z,0
2017-01-14T06:36:43.527Z,0
2017-01-14T06:37:43.511Z,0
2017-01-14T06:38:43.492Z,0
2017-01-14T06:39:43.473Z,0
2017-01-14T06:40:43.455Z,0
2017-01-14T06:41:43.437Z,0
2017-01-14T06:42:43.421Z,0
2017-01-14T06:43:43.402Z,0
2017-01-14T06:44:43.387Z,0
2017-01-14T06:45:43.365Z,0
2017-01-14T06:46:43.351Z,0
2017-01-14T06:47:43.330Z,0
2017-01-14T06:48:43.318Z,0
2017-01-14T06:49:43.297Z,0
2017-01-14T06:50:43.283Z,0
2017-01-14T06:51:43.261Z,0
2017-01-14T06:52:43.246Z,0
2017-01-14T06:53:43.228Z,0
2017-01-14T06:54:43.210Z,0
2017-01-14T06:55:43.198Z,0
2017-01-14T06:56:43.176Z,0
2017-01-14T06:57:43.159Z,0
2017-01-14T06:58:43.143Z,0
2017-01-14T06:59:43.518Z,0
2017-01-14T07:00:43.112Z,0
2017-01-14T07:01:43.090Z,0
2017-01-14T07:02:43.068Z,0
2017-01-14T07:03:43.049Z,0
2017-01-14T07:04:43.033Z,0
2017-01-14T07:05:43.010Z,0
2017-01-14T07:06:42.998Z,0
2017-01-14T07:07:42.979Z,0
2017-01-14T07:08:42.968Z,0
2017-01-14T07:09:42.947Z,0
2017-01-14T07:10:42.925Z,0
2017-01-14T07:11:43.587Z,0
2017-01-14T07:12:42.891Z,0
2017-01-14T07:13:42.873Z,0
2017-01-14T07:14:43.251Z,0
2017-01-14T07:15:42.836Z,0
2017-01-14T07:16:42.825Z,0
2017-01-14T07:17:42.804Z,0
2017-01-14T07:18:42.789Z,0
2017-01-14T07:19:42.770Z,0
2017-01-14T07:20:42.753Z,0
2017-01-14T07:21:42.732Z,0
2017-01-14T07:22:42.750Z,0
2017-01-14T07:23:42.700Z,0
2017-01-14T07:24:42.688Z,0
2017-01-14T07:25:42.662Z,0
2017-01-14T07:26:42.645Z,0
2017-01-14T07:27:42.631Z,0
2017-01-14T07:28:42.609Z,0
2017-01-14T07:29:42.593Z,0
2017-01-14T07:30:42.578Z,0
2017-01-14T07:31:42.566Z,0
2017-01-14T07:32:42.541Z,0
2017-01-14T07:33:42.523Z,0
2017-01-14T07:34:42.520Z,0
2017-01-14T07:35:42.489Z,0
2017-01-14T07:36:42.474Z,0
2017-01-14T07:37:42.457Z,0
2017-01-14T07:38:42.443Z,0
2017-01-14T07:39:42.425Z,0
2017-01-14T07:40:42.409Z,0
2017-01-14T07:41:42.385Z,0
2017-01-14T07:42:42.375Z,0
2017-01-14T07:43:42.348Z,5
2017-01-14T07:44:42.335Z,5
2017-01-14T07:45:42.318Z,5
2017-01-14T07:46:42.296Z,5
2017-01-14T07:47:42.283Z,5
2017-01-14T07:48:42.265Z,5
2017-01-14T07:49:42.247Z,5
2017-01-14T07:50:42.228Z,5
2017-01-14T07:51:42.211Z,5
2017-01-14T07:52:42.197Z,10
2017-01-14T07:53:42.177Z,10
2017-01-14T07:54:42.163Z,10
2017-01-14T07:55:42.146Z,10
2017-01-14T07:56:42.130Z,10
2017-01-14T07:57:42.114Z,10
2017-01-14T07:58:42.096Z,10
2017-01-14T07:59:42.072Z,10
2017-01-14T08:00:42.059Z,10
2017-01-14T08:01:42.036Z,10
2017-01-14T08:02:42.022Z,10
2017-01-14T08:03:42.003Z,10
2017-01-14T08:04:41.994Z,10
2017-01-14T08:05:41.989Z,10
2017-01-14T08:06:41.951Z,10
2017-01-14T08:07:41.934Z,10
2017-01-14T08:08:41.922Z,10
2017-01-14T08:09:41.901Z,10
2017-01-14T08:10:41.880Z,10
2017-01-14T08:11:41.895Z,10
2017-01-14T08:12:41.849Z,10
2017-01-14T08:13:41.830Z,10
2017-01-14T08:14:41.813Z,10
2017-01-14T08:15:41.797Z,15
2017-01-14T08:16:41.809Z,15
2017-01-14T08:17:41.764Z,15
2017-01-14T08:18:41.740Z,20
2017-01-14T08:19:41.725Z,20
2017-01-14T08:20:41.705Z,20
2017-01-14T08:21:41.695Z,25
2017-01-14T08:22:41.688Z,25
2017-01-14T08:23:41.658Z,25
2017-01-14T08:24:41.643Z,25
2017-01-14T08:25:41.624Z,30
2017-01-14T08:26:41.611Z,30
2017-01-14T08:27:41.592Z,35
2017-01-14T08:28:41.572Z,35
2017-01-14T08:29:41.557Z,30
2017-01-14T08:30:41.534Z,30
2017-01-14T08:31:41.524Z,30
2017-01-14T08:32:41.503Z,25
2017-01-14T08:33:41.484Z,30
2017-01-14T08:34:41.471Z,25
2017-01-14T08:35:41.476Z,25
2017-01-14T08:36:41.835Z,25
2017-01-14T08:37:41.415Z,20
2017-01-14T08:38:41.403Z,20
2017-01-14T08:39:41.381Z,20
2017-01-14T08:40:41.365Z,20
2017-01-14T08:41:41.745Z,15
2017-01-14T08:42:41.331Z,15
2017-01-14T08:43:41.340Z,15
2017-01-14T08:44:41.302Z,15
2017-01-14T08:45:41.286Z,15
2017-01-14T08:46:41.266Z,10
2017-01-14T08:47:41.254Z,15
2017-01-14T08:48:41.233Z,15
2017-01-14T08:49:41.215Z,20
2017-01-14T08:50:41.200Z,25
2017-01-14T08:51:41.177Z,30
2017-01-14T08:52:41.164Z,40
2017-01-14T08:53:41.145Z,35
2017-01-14T08:54:41.125Z,35
2017-01-14T08:55:41.109Z,35
2017-01-14T08:56:41.095Z,35
2017-01-14T08:57:41.078Z,35
2017-01-14T08:58:41.059Z,35
2017-01-14T08:59:41.039Z,35
2017-01-14T09:00:41.021Z,35
2017-01-14T09:01:41.008Z,35
2017-01-14T09:02:40.995Z,35
2017-01-14T09:03:40.975Z,30
2017-01-14T09:04:40.954Z,30
2017-01-14T09:05:40.934Z,30
2017-01-14T09:06:40.915Z,30
2017-01-14T09:07:41.303Z,25
2017-01-14T09:08:40.886Z,25
2017-01-14T09:09:40.868Z,25
2017-01-14T09:10:40.848Z,30
2017-01-14T09:11:40.839Z,30
2017-01-14T09:12:40.817Z,30
2017-01-14T09:13:40.795Z,30
2017-01-14T09:14:40.780Z,35
2017-01-14T09:15:40.764Z,40
2017-01-14T09:16:40.742Z,50
2017-01-14T09:17:40.723Z,55
2017-01-14T09:18:40.712Z,55
2017-01-14T09:19:40.690Z,55
2017-01-14T09:20:40.670Z,50
2017-01-14T09:21:40.655Z,45
2017-01-14T09:22:40.641Z,45
2017-01-14T09:23:40.621Z,45
2017-01-14T09:24:40.608Z,45
2017-01-14T09:25:40.589Z,50
2017-01-14T09:26:40.572Z,50
2017-01-14T09:27:40.555Z,55
2017-01-14T09:28:40.531Z,55
2017-01-14T09:29:40.515Z,55
2017-01-14T09:30:40.500Z,60
2017-01-14T09:31:40.486Z,55
2017-01-14T09:32:40.466Z,55
2017-01-14T09:33:40.447Z,55
2017-01-14T09:34:40.430Z,55
2017-01-14T09:35:40.411Z,55
2017-01-14T09:36:40.398Z,55
2017-01-14T09:37:40.382Z,55
2017-01-14T09:38:40.361Z,50
2017-01-14T09:39:40.343Z,50
2017-01-14T09:40:40.327Z,45
2017-01-14T09:41:40.305Z,45
2017-01-14T09:42:40.689Z,50
2017-01-14T09:43:40.271Z,50
2017-01-14T09:44:40.254Z,55
2017-01-14T09:45:40.239Z,65
2017-01-14T09:46:40.226Z,55
2017-01-14T09:47:40.203Z,45
2017-01-14T09:48:40.191Z,40
2017-01-14T09:49:40.167Z,50
2017-01-14T09:50:40.160Z,65
2017-01-14T09:51:40.137Z,65
2017-01-14T09:52:40.121Z,70
2017-01-14T09:53:40.099Z,65
2017-01-14T09:54:40.089Z,65
2017-01-14T09:55:40.064Z,65
2017-01-14T09:56:40.049Z,65
2017-01-14T09:57:40.031Z,60
2017-01-14T09:58:40.014Z,55
2017-01-14T09:59:39.997Z,55
2017-01-14T10:00:40.001Z,55
2017-01-14T10:01:39.961Z,60
2017-01-14T10:02:39.953Z,65
2017-01-14T10:03:39.948Z,65
2017-01-14T10:04:39.908Z,60
2017-01-14T10:05:39.900Z,50
2017-01-14T10:06:39.876Z,50
2017-01-14T10:07:39.866Z,50
2017-01-14T10:08:39.844Z,50
2017-01-14T10:09:39.823Z,50
2017-01-14T10:10:39.808Z,55
2017-01-14T10:11:39.790Z,55
2017-01-14T10:12:39.776Z,50
2017-01-14T10:13:39.758Z,55
2017-01-14T10:14:39.768Z,55
2017-01-14T10:15:39.724Z,55
2017-01-14T10:16:39.713Z,60
2017-01-14T10:17:39.689Z,60
2017-01-14T10:18:39.669Z,65
2017-01-14T10:19:39.658Z,65
2017-01-14T10:20:39.638Z,70
2017-01-14T10:21:39.625Z,75
2017-01-14T10:22:39.606Z,65
2017-01-14T10:23:39.591Z,65
2017-01-14T10:24:39.567Z,60
2017-01-14T10:25:39.551Z,65
2017-01-14T10:26:39.533Z,60
2017-01-14T10:27:39.525Z,55
2017-01-14T10:28:39.498Z,55
2017-01-14T10:29:39.485Z,55
2017-01-14T10:30:39.463Z,55
2017-01-14T10:31:39.447Z,60
2017-01-14T10:32:39.433Z,60
2017-01-14T10:33:39.415Z,60
2017-01-14T10:34:39.400Z,60
2017-01-14T10:35:39.378Z,60
2017-01-14T10:36:39.363Z,55
2017-01-14T10:37:39.346Z,55
2017-01-14T10:38:39.733Z,55
2017-01-14T10:39:39.307Z,55
2017-01-14T10:40:39.294Z,55
2017-01-14T10:41:39.275Z,50
2017-01-14T10:42:39.257Z,50
2017-01-14T10:43:39.241Z,55
2017-01-14T10:44:39.227Z,65
2017-01-14T10:45:39.207Z,60
2017-01-14T10:46:39.190Z,55
2017-01-14T10:47:39.175Z,55
2017-01-14T10:48:39.159Z,55
2017-01-14T10:49:39.150Z,60
2017-01-14T10:50:39.123Z,75
2017-01-14T10:51:39.128Z,75
2017-01-14T10:52:39.094Z,75
2017-01-14T10:53:39.079Z,80
2017-01-14T10:54:39.058Z,85
2017-01-14T10:55:39.036Z,85
2017-01-14T10:56:39.420Z,100
2017-01-14T10:57:39.007Z,90
2017-01-14T10:58:38.988Z,85
2017-01-14T10:59:38.970Z,80
2017-01-14T11:00:38.957Z,75
2017-01-14T11:01:38.938Z,70
2017-01-14T11:02:38.921Z,70
2017-01-14T11:03:38.906Z,75
2017-01-14T11:04:38.884Z,80
2017-01-14T11:05:38.877Z,75
2017-01-14T11:06:38.856Z,80
2017-01-14T11:07:38.837Z,75
2017-01-14T11:08:38.855Z,75
2017-01-14T11:09:38.801Z,75
2017-01-14T11:10:38.793Z,75
2017-01-14T11:11:38.835Z,75
2017-01-14T11:12:38.845Z,80
2017-01-14T11:13:38.766Z,80
2017-01-14T11:14:38.731Z,80
2017-01-14T11:15:38.735Z,85
2017-01-14T11:16:38.686Z,85
2017-01-14T11:17:38.677Z,80
2017-01-14T11:18:38.659Z,80
2017-01-14T11:19:38.639Z,80
2017-01-14T11:20:38.618Z,80
2017-01-14T11:21:38.607Z,85
2017-01-14T11:22:38.584Z,85
2017-01-14T11:23:38.569Z,95
2017-01-14T11:24:38.555Z,95
2017-01-14T11:25:38.532Z,110
2017-01-14T11:26:38.518Z,110
2017-01-14T11:27:38.912Z,120
2017-01-14T11:28:38.484Z,100
2017-01-14T11:29:38.469Z,105
2017-01-14T11:30:38.847Z,115
2017-01-14T11:31:38.437Z,105
2017-01-14T11:32:38.421Z,95
2017-01-14T11:33:38.403Z,90
2017-01-14T11:34:38.384Z,95
2017-01-14T11:35:38.367Z,100
2017-01-14T11:36:38.363Z,105
2017-01-14T11:37:38.332Z,95
2017-01-14T11:38:38.323Z,95
2017-01-14T11:39:38.305Z,95
2017-01-14T11:40:38.284Z,85
2017-01-14T11:41:38.274Z,80
2017-01-14T11:42:38.254Z,90
2017-01-14T11:43:38.241Z,85
2017-01-14T11:44:38.218Z,80
2017-01-14T11:45:38.209Z,75
2017-01-14T11:46:38.186Z,70
2017-01-14T11:47:38.180Z,70
2017-01-14T11:48:38.156Z,70
2017-01-14T11:49:38.141Z,65
2017-01-14T11:50:38.117Z,60
2017-01-14T11:51:38.109Z,65
2017-01-14T11:52:38.091Z,80
2017-01-14T11:53:38.067Z,80
2017-01-14T11:54:38.056Z,75
2017-01-14T11:55:38.036Z,65
2017-01-14T11:56:38.021Z,70
2017-01-14T11:57:38.005Z,75
2017-01-14T11:58:37.981Z,80
2017-01-14T11:59:37.968Z,85
2017-01-14T12:00:37.959Z,90
2017-01-14T12:01:37.935Z,95
2017-01-14T12:02:37.924Z,85
2017-01-14T12:03:37.908Z,85
2017-01-14T12:04:37.887Z,85
2017-01-14T12:05:37.872Z,95
2017-01-14T12:06:37.867Z,105
2017-01-14T12:07:37.837Z,115
2017-01-14T12:08:37.826Z,105
2017-01-14T12:09:37.802Z,100
2017-01-14T12:10:37.783Z,95
2017-01-14T12:11:37.774Z,85
2017-01-14T12:12:37.762Z,70
2017-01-14T12:13:37.746Z,60
2017-01-14T12:14:37.721Z,55
2017-01-14T12:15:37.703Z,55
2017-01-14T12:16:37.691Z,55
2017-01-14T12:17:37.669Z,60
2017-01-14T12:18:37.654Z,60
2017-01-14T12:19:37.635Z,75
2017-01-14T12:20:37.619Z,85
2017-01-14T12:21:37.605Z,90
2017-01-14T12:22:37.594Z,85
2017-01-14T12:23:37.580Z,85
2017-01-14T12:24:37.550Z,80
2017-01-14T12:25:37.542Z,80
2017-01-14T12:26:37.530Z,90
2017-01-14T12:27:37.513Z,95
2017-01-14T12:28:37.492Z,90
2017-01-14T12:29:37.473Z,80
2017-01-14T12:30:37.457Z,80
2017-01-14T12:31:37.449Z,75
2017-01-14T12:32:37.425Z,75
2017-01-14T12:33:37.407Z,65
2017-01-14T12:34:37.395Z,65
2017-01-14T12:35:37.376Z,65
2017-01-14T12:36:37.360Z,65
2017-01-14T12:37:37.738Z,60
2017-01-14T12:38:37.325Z,65
2017-01-14T12:39:37.318Z,65
2017-01-14T12:40:37.292Z,70
2017-01-14T12:41:37.675Z,75
2017-01-14T12:42:37.256Z,75
2017-01-14T12:43:37.243Z,75
2017-01-14T12:44:37.229Z,75
2017-01-14T12:45:37.203Z,75
2017-01-14T12:46:37.191Z,75
2017-01-14T12:47:37.179Z,75
2017-01-14T12:48:37.556Z,65
2017-01-14T12:49:37.142Z,60
2017-01-14T12:50:37.126Z,55
2017-01-14T12:51:37.110Z,50
2017-01-14T12:52:37.094Z,50
2017-01-14T12:53:37.078Z,50
2017-01-14T12:54:37.056Z,50
2017-01-14T12:55:37.066Z,45
2017-01-14T12:56:37.019Z,45
2017-01-14T12:57:37.003Z,40
2017-01-14T12:58:36.994Z,30
2017-01-14T12:59:37.378Z,30
2017-01-14T13:00:36.952Z,30
2017-01-14T13:01:36.942Z,30
2017-01-14T13:02:36.926Z,30
2017-01-14T13:03:36.911Z,30
2017-01-14T13:04:36.892Z,30
2017-01-14T13:05:36.891Z,40
2017-01-14T13:06:36.855Z,40
2017-01-14T13:07:36.834Z,45
2017-01-14T13:08:36.821Z,50
2017-01-14T13:09:36.809Z,55
2017-01-14T13:10:36.788Z,55
2017-01-14T13:11:36.798Z,60
2017-01-14T13:12:36.755Z,70
2017-01-14T13:13:36.734Z,75
2017-01-14T13:14:36.715Z,75
2017-01-14T13:15:36.698Z,65
2017-01-14T13:16:36.683Z,55
2017-01-14T13:17:36.665Z,45
2017-01-14T13:18:36.648Z,40
2017-01-14T13:19:36.637Z,40
2017-01-14T13:20:36.614Z,40
2017-01-14T13:21:36.602Z,35
2017-01-14T13:22:36.589Z,40
2017-01-14T13:23:36.568Z,35
2017-01-14T13:24:36.546Z,40
2017-01-14T13:25:36.530Z,40
2017-01-14T13:26:36.512Z,40
2017-01-14T13:27:36.492Z,35
2017-01-14T13:28:36.483Z,35
2017-01-14T13:29:36.469Z,35
2017-01-14T13:30:36.446Z,35
2017-01-14T13:31:36.430Z,35
2017-01-14T13:32:36.416Z,35
2017-01-14T13:33:36.392Z,35
2017-01-14T13:34:36.372Z,35
2017-01-14T13:35:36.354Z,35
2017-01-14T13:36:36.342Z,35
2017-01-14T13:37:36.327Z,40
2017-01-14T13:38:36.311Z,45
2017-01-14T13:39:36.292Z,45
2017-01-14T13:40:36.275Z,45
2017-01-14T13:41:36.254Z,45
2017-01-14T13:42:36.237Z,40
2017-01-14T13:43:36.225Z,40
2017-01-14T13:44:36.237Z,40
2017-01-14T13:45:36.190Z,35
2017-01-14T13:46:36.180Z,35
2017-01-14T13:47:36.551Z,35
2017-01-14T13:48:36.138Z,35
2017-01-14T13:49:36.541Z,35
2017-01-14T13:50:36.120Z,40
2017-01-14T13:51:36.086Z,45
2017-01-14T13:52:36.065Z,50
2017-01-14T13:53:36.052Z,55
2017-01-14T13:54:36.031Z,65
2017-01-14T13:55:36.015Z,65
2017-01-14T13:56:36.001Z,65
2017-01-14T13:57:35.977Z,60
2017-01-14T13:58:35.971Z,55
2017-01-14T13:59:35.991Z,60
2017-01-14T14:00:35.927Z,55
2017-01-14T14:01:35.908Z,50
2017-01-14T14:02:35.896Z,45
2017-01-14T14:03:35.880Z,40
2017-01-14T14:04:35.890Z,45
2017-01-14T14:05:35.839Z,50
2017-01-14T14:06:35.819Z,50
2017-01-14T14:07:35.810Z,55
2017-01-14T14:08:35.785Z,50
2017-01-14T14:09:35.797Z,55
2017-01-14T14:10:35.793Z,60
2017-01-14T14:11:36.144Z,55
2017-01-14T14:12:35.714Z,55
2017-01-14T14:13:35.699Z,55
2017-01-14T14:14:35.683Z,55
2017-01-14T14:15:35.671Z,50
2017-01-14T14:16:35.651Z,45
2017-01-14T14:17:35.626Z,50
2017-01-14T14:18:35.615Z,50
2017-01-14T14:19:35.595Z,50
2017-01-14T14:20:35.577Z,50
2017-01-14T14:21:35.562Z,50
2017-01-14T14:22:35.546Z,50
2017-01-14T14:23:35.529Z,45
2017-01-14T14:24:35.515Z,45
2017-01-14T14:25:35.494Z,45
2017-01-14T14:26:35.480Z,45
2017-01-14T14:27:35.463Z,50
2017-01-14T14:28:35.436Z,50
2017-01-14T14:29:35.425Z,45
2017-01-14T14:30:35.407Z,45
2017-01-14T14:31:35.389Z,40